Terminal Aerodrome Forecast
Issued by NWS

Home | Current Version | Previous Version | Text Only | Print | Product List | Glossary On
Versions: 1 2 3 4 5 6 7 8 9 10 11 12
000
FTUS44 KSJT 252300
TAFSOA
TAF
KSOA 252332Z 2600/2624 28008KT P6SM SKC
     FM260200 VRB03KT P6SM SKC
     FM261800 28008KT P6SM SKC=

USA.gov is the U.S. government's official web portal to all federal, state and local government web resources and services.